sensor_id;sensor_type;location;lat;lon;timestamp;noise_LAeq;noise_LA_min;noise_LA_max;noise_LA01;noise_LA95
70454;Laerm;57915;47.174;14.680;2023-06-26T00:00:41;43.88;42.12;45.82;;
70454;Laerm;57915;47.174;14.680;2023-06-26T00:01:43;43.74;41.63;46.16;;
70454;Laerm;57915;47.174;14.680;2023-06-26T00:02:43;44.21;42.37;47.12;;
70454;Laerm;57915;47.174;14.680;2023-06-26T00:03:45;43.23;40.96;47.62;;
70454;Laerm;57915;47.174;14.680;2023-06-26T00:04:45;42.79;40.79;45.93;;
70454;Laerm;57915;47.174;14.680;2023-06-26T00:05:47;42.77;40.91;47.82;;
70454;Laerm;57915;47.174;14.680;2023-06-26T00:06:47;43.00;41.12;45.10;;
70454;Laerm;57915;47.174;14.680;2023-06-26T00:07:50;42.32;40.68;44.83;;
70454;Laerm;57915;47.174;14.680;2023-06-26T00:08:50;42.25;40.82;44.34;;
70454;Laerm;57915;47.174;14.680;2023-06-26T00:09:53;43.52;41.44;46.99;;
70454;Laerm;57915;47.174;14.680;2023-06-26T00:10:53;44.06;42.52;47.34;;
70454;Laerm;57915;47.174;14.680;2023-06-26T00:11:54;44.69;41.89;47.55;;
70454;Laerm;57915;47.174;14.680;2023-06-26T00:12:55;43.00;41.32;46.18;;
70454;Laerm;57915;47.174;14.680;2023-06-26T00:13:56;44.78;41.89;47.17;;
70454;Laerm;57915;47.174;14.680;2023-06-26T00:14:57;46.17;43.81;49.18;;
70454;Laerm;57915;47.174;14.680;2023-06-26T00:15:58;44.82;42.78;47.68;;
70454;Laerm;57915;47.174;14.680;2023-06-26T00:17:03;45.78;43.82;47.77;;
70454;Laerm;57915;47.174;14.680;2023-06-26T00:18:04;45.27;43.52;47.53;;
70454;Laerm;57915;47.174;14.680;2023-06-26T00:19:05;56.78;43.73;69.07;;
70454;Laerm;57915;47.174;14.680;2023-06-26T00:20:06;45.62;43.83;47.85;;
70454;Laerm;57915;47.174;14.680;2023-06-26T00:21:08;44.85;42.43;47.36;;
70454;Laerm;57915;47.174;14.680;2023-06-26T00:22:09;44.39;42.34;46.63;;
70454;Laerm;57915;47.174;14.680;2023-06-26T00:23:12;43.96;42.63;46.41;;
70454;Laerm;57915;47.174;14.680;2023-06-26T00:24:16;43.38;41.52;46.25;;
70454;Laerm;57915;47.174;14.680;2023-06-26T00:25:17;42.51;41.18;45.47;;
70454;Laerm;57915;47.174;14.680;2023-06-26T00:26:18;43.37;41.40;46.18;;
70454;Laerm;57915;47.174;14.680;2023-06-26T00:27:19;43.88;41.82;46.02;;
70454;Laerm;57915;47.174;14.680;2023-06-26T00:28:20;44.37;42.50;46.48;;
70454;Laerm;57915;47.174;14.680;2023-06-26T00:29:21;44.97;42.83;47.78;;
70454;Laerm;57915;47.174;14.680;2023-06-26T00:30:22;45.51;43.18;48.54;;
70454;Laerm;57915;47.174;14.680;2023-06-26T00:31:22;44.88;42.91;47.28;;
70454;Laerm;57915;47.174;14.680;2023-06-26T00:32:24;46.07;43.69;48.47;;
70454;Laerm;57915;47.174;14.680;2023-06-26T00:33:24;45.07;43.49;47.11;;
70454;Laerm;57915;47.174;14.680;2023-06-26T00:34:26;45.28;43.17;48.35;;
70454;Laerm;57915;47.174;14.680;2023-06-26T00:35:26;48.40;45.02;54.06;;
70454;Laerm;57915;47.174;14.680;2023-06-26T00:36:28;44.88;42.67;48.01;;
70454;Laerm;57915;47.174;14.680;2023-06-26T00:37:28;45.66;43.34;49.12;;
70454;Laerm;57915;47.174;14.680;2023-06-26T00:38:31;44.79;42.53;47.36;;
70454;Laerm;57915;47.174;14.680;2023-06-26T00:39:31;44.81;42.84;47.18;;
70454;Laerm;57915;47.174;14.680;2023-06-26T00:40:33;44.29;42.45;46.43;;
70454;Laerm;57915;47.174;14.680;2023-06-26T00:41:34;43.71;42.11;47.90;;
70454;Laerm;57915;47.174;14.680;2023-06-26T00:42:35;44.07;42.08;47.37;;
70454;Laerm;57915;47.174;14.680;2023-06-26T00:43:35;43.86;42.16;46.41;;
70454;Laerm;57915;47.174;14.680;2023-06-26T00:44:37;46.00;42.63;49.38;;
70454;Laerm;57915;47.174;14.680;2023-06-26T00:45:37;46.03;43.33;48.90;;
70454;Laerm;57915;47.174;14.680;2023-06-26T00:46:39;44.65;42.50;47.55;;
70454;Laerm;57915;47.174;14.680;2023-06-26T00:47:39;43.82;41.85;45.86;;
70454;Laerm;57915;47.174;14.680;2023-06-26T00:48:42;44.66;42.58;46.75;;
70454;Laerm;57915;47.174;14.680;2023-06-26T00:49:42;57.43;41.84;71.63;;
70454;Laerm;57915;47.174;14.680;2023-06-26T00:50:44;44.46;42.14;48.30;;
70454;Laerm;57915;47.174;14.680;2023-06-26T00:51:45;44.30;42.11;47.39;;
70454;Laerm;57915;47.174;14.680;2023-06-26T00:52:46;57.15;41.07;70.22;;
70454;Laerm;57915;47.174;14.680;2023-06-26T00:53:48;44.62;42.67;47.36;;
70454;Laerm;57915;47.174;14.680;2023-06-26T00:54:50;44.32;42.58;46.97;;
70454;Laerm;57915;47.174;14.680;2023-06-26T00:55:51;44.78;42.76;47.96;;
70454;Laerm;57915;47.174;14.680;2023-06-26T00:56:52;45.08;42.63;48.16;;
70454;Laerm;57915;47.174;14.680;2023-06-26T00:57:53;47.55;44.59;50.92;;
70454;Laerm;57915;47.174;14.680;2023-06-26T00:58:55;46.90;43.13;51.17;;
70454;Laerm;57915;47.174;14.680;2023-06-26T00:59:55;47.04;44.89;51.04;;
70454;Laerm;57915;47.174;14.680;2023-06-26T01:00:57;45.95;44.16;48.50;;
70454;Laerm;57915;47.174;14.680;2023-06-26T01:01:57;44.53;42.13;47.41;;
70454;Laerm;57915;47.174;14.680;2023-06-26T01:02:59;44.81;42.79;46.89;;
70454;Laerm;57915;47.174;14.680;2023-06-26T01:03:59;45.68;42.97;49.34;;
70454;Laerm;57915;47.174;14.680;2023-06-26T01:05:01;45.08;42.79;47.21;;
70454;Laerm;57915;47.174;14.680;2023-06-26T01:06:06;45.68;42.16;51.48;;
70454;Laerm;57915;47.174;14.680;2023-06-26T01:07:11;45.28;42.07;51.24;;
70454;Laerm;57915;47.174;14.680;2023-06-26T01:08:12;45.37;43.10;48.02;;
70454;Laerm;57915;47.174;14.680;2023-06-26T01:09:16;43.54;41.37;47.76;;
70454;Laerm;57915;47.174;14.680;2023-06-26T01:10:17;44.35;41.63;62.74;;
70454;Laerm;57915;47.174;14.680;2023-06-26T01:11:19;44.80;42.13;47.89;;
70454;Laerm;57915;47.174;14.680;2023-06-26T01:12:20;44.22;41.44;49.03;;
70454;Laerm;57915;47.174;14.680;2023-06-26T01:13:22;43.89;41.05;47.37;;
70454;Laerm;57915;47.174;14.680;2023-06-26T01:14:23;43.33;41.04;47.79;;
70454;Laerm;57915;47.174;14.680;2023-06-26T01:15:24;42.52;40.14;46.93;;
70454;Laerm;57915;47.174;14.680;2023-06-26T01:16:25;43.07;41.17;46.72;;
70454;Laerm;57915;47.174;14.680;2023-06-26T01:17:27;43.47;41.28;45.98;;
70454;Laerm;57915;47.174;14.680;2023-06-26T01:18:31;42.72;40.78;45.58;;
70454;Laerm;57915;47.174;14.680;2023-06-26T01:19:33;42.24;39.98;47.19;;
70454;Laerm;57915;47.174;14.680;2023-06-26T01:20:35;41.88;39.94;44.53;;
70454;Laerm;57915;47.174;14.680;2023-06-26T01:21:37;42.57;40.71;45.44;;
70454;Laerm;57915;47.174;14.680;2023-06-26T01:22:43;43.74;41.48;47.31;;
70454;Laerm;57915;47.174;14.680;2023-06-26T01:23:49;44.04;41.84;46.74;;
70454;Laerm;57915;47.174;14.680;2023-06-26T01:25:01;45.55;42.62;48.21;;
70454;Laerm;57915;47.174;14.680;2023-06-26T01:26:18;44.60;41.95;48.29;;
70454;Laerm;57915;47.174;14.680;2023-06-26T01:27:19;45.14;41.70;48.15;;
70454;Laerm;57915;47.174;14.680;2023-06-26T01:28:23;45.14;41.92;49.48;;
70454;Laerm;57915;47.174;14.680;2023-06-26T01:29:24;45.99;42.50;49.48;;
70454;Laerm;57915;47.174;14.680;2023-06-26T01:30:25;45.01;42.42;47.43;;
70454;Laerm;57915;47.174;14.680;2023-06-26T01:31:26;45.08;42.65;47.26;;
70454;Laerm;57915;47.174;14.680;2023-06-26T01:32:28;44.51;41.84;47.08;;
70454;Laerm;57915;47.174;14.680;2023-06-26T01:33:29;45.06;42.60;49.55;;
70454;Laerm;57915;47.174;14.680;2023-06-26T01:34:31;54.57;41.50;66.81;;
70454;Laerm;57915;47.174;14.680;2023-06-26T01:35:32;48.04;41.85;61.09;;
70454;Laerm;57915;47.174;14.680;2023-06-26T01:36:33;45.24;42.64;47.74;;
70454;Laerm;57915;47.174;14.680;2023-06-26T01:37:34;44.98;42.88;47.64;;
70454;Laerm;57915;47.174;14.680;2023-06-26T01:38:35;46.40;43.59;48.90;;
70454;Laerm;57915;47.174;14.680;2023-06-26T01:39:36;44.64;41.50;49.29;;
70454;Laerm;57915;47.174;14.680;2023-06-26T01:40:37;43.47;41.20;46.35;;
70454;Laerm;57915;47.174;14.680;2023-06-26T01:41:39;53.98;41.40;65.98;;
70454;Laerm;57915;47.174;14.680;2023-06-26T01:42:41;43.77;41.49;46.91;;
70454;Laerm;57915;47.174;14.680;2023-06-26T01:43:46;43.37;41.44;47.67;;
70454;Laerm;57915;47.174;14.680;2023-06-26T01:44:56;44.17;41.71;49.92;;
70454;Laerm;57915;47.174;14.680;2023-06-26T01:45:58;44.70;41.59;53.98;;
70454;Laerm;57915;47.174;14.680;2023-06-26T01:47:01;44.51;41.90;48.66;;
70454;Laerm;57915;47.174;14.680;2023-06-26T01:48:02;55.58;42.42;68.48;;
70454;Laerm;57915;47.174;14.680;2023-06-26T01:49:06;54.44;42.44;66.75;;
70454;Laerm;57915;47.174;14.680;2023-06-26T01:50:11;45.64;42.08;55.81;;
70454;Laerm;57915;47.174;14.680;2023-06-26T01:51:12;54.63;42.35;67.34;;
70454;Laerm;57915;47.174;14.680;2023-06-26T01:52:16;44.36;42.25;48.53;;
70454;Laerm;57915;47.174;14.680;2023-06-26T01:53:21;45.30;43.08;50.51;;
70454;Laerm;57915;47.174;14.680;2023-06-26T01:54:24;45.27;42.50;51.10;;
70454;Laerm;57915;47.174;14.680;2023-06-26T01:55:28;44.97;42.76;50.62;;
70454;Laerm;57915;47.174;14.680;2023-06-26T01:56:30;44.05;41.94;49.41;;
70454;Laerm;57915;47.174;14.680;2023-06-26T01:57:33;45.23;42.96;49.56;;
70454;Laerm;57915;47.174;14.680;2023-06-26T01:58:35;51.84;42.68;64.69;;
70454;Laerm;57915;47.174;14.680;2023-06-26T01:59:37;48.36;41.99;59.16;;
70454;Laerm;57915;47.174;14.680;2023-06-26T02:00:39;49.43;42.52;59.18;;
70454;Laerm;57915;47.174;14.680;2023-06-26T02:01:41;55.05;45.64;66.89;;
70454;Laerm;57915;47.174;14.680;2023-06-26T02:02:41;49.84;44.83;55.88;;
70454;Laerm;57915;47.174;14.680;2023-06-26T02:03:43;59.03;42.99;73.50;;
70454;Laerm;57915;47.174;14.680;2023-06-26T02:04:43;45.22;42.08;54.16;;
70454;Laerm;57915;47.174;14.680;2023-06-26T02:05:48;45.50;42.53;55.72;;
70454;Laerm;57915;47.174;14.680;2023-06-26T02:06:48;48.12;43.69;58.02;;
70454;Laerm;57915;47.174;14.680;2023-06-26T02:07:50;50.02;43.08;62.86;;
70454;Laerm;57915;47.174;14.680;2023-06-26T02:08:51;57.76;43.34;69.11;;
70454;Laerm;57915;47.174;14.680;2023-06-26T02:09:52;55.97;43.13;67.83;;
70454;Laerm;57915;47.174;14.680;2023-06-26T02:10:53;49.61;44.16;60.16;;
70454;Laerm;57915;47.174;14.680;2023-06-26T02:11:54;49.86;44.58;58.10;;
70454;Laerm;57915;47.174;14.680;2023-06-26T02:12:56;56.48;44.31;67.39;;
70454;Laerm;57915;47.174;14.680;2023-06-26T02:13:57;49.28;42.94;59.27;;
70454;Laerm;57915;47.174;14.680;2023-06-26T02:14:58;56.46;43.05;70.21;;
70454;Laerm;57915;47.174;14.680;2023-06-26T02:15:59;49.23;43.51;58.58;;
70454;Laerm;57915;47.174;14.680;2023-06-26T02:17:00;50.27;44.08;63.25;;
70454;Laerm;57915;47.174;14.680;2023-06-26T02:18:01;50.51;43.90;61.69;;
70454;Laerm;57915;47.174;14.680;2023-06-26T02:19:02;49.63;44.46;61.81;;
70454;Laerm;57915;47.174;14.680;2023-06-26T02:20:03;54.01;44.73;63.54;;
70454;Laerm;57915;47.174;14.680;2023-06-26T02:21:04;50.02;44.51;64.33;;
70454;Laerm;57915;47.174;14.680;2023-06-26T02:22:06;51.56;44.83;63.82;;
70454;Laerm;57915;47.174;14.680;2023-06-26T02:23:06;51.03;44.11;65.51;;
70454;Laerm;57915;47.174;14.680;2023-06-26T02:24:07;49.48;43.79;61.85;;
70454;Laerm;57915;47.174;14.680;2023-06-26T02:25:08;51.24;45.50;63.85;;
70454;Laerm;57915;47.174;14.680;2023-06-26T02:26:10;50.61;44.20;62.82;;
70454;Laerm;57915;47.174;14.680;2023-06-26T02:27:11;50.63;44.74;63.71;;
70454;Laerm;57915;47.174;14.680;2023-06-26T02:28:14;50.98;44.94;63.84;;
70454;Laerm;57915;47.174;14.680;2023-06-26T02:29:14;51.28;44.30;63.15;;
70454;Laerm;57915;47.174;14.680;2023-06-26T02:30:15;51.19;44.50;64.92;;
70454;Laerm;57915;47.174;14.680;2023-06-26T02:31:16;57.09;44.40;68.51;;
70454;Laerm;57915;47.174;14.680;2023-06-26T02:32:17;51.70;44.50;65.03;;
70454;Laerm;57915;47.174;14.680;2023-06-26T02:33:18;51.77;44.60;64.20;;
70454;Laerm;57915;47.174;14.680;2023-06-26T02:34:19;57.01;45.45;66.93;;
70454;Laerm;57915;47.174;14.680;2023-06-26T02:35:20;53.89;44.98;67.29;;
70454;Laerm;57915;47.174;14.680;2023-06-26T02:36:21;60.56;44.69;72.96;;
70454;Laerm;57915;47.174;14.680;2023-06-26T02:37:21;55.66;44.49;68.08;;
70454;Laerm;57915;47.174;14.680;2023-06-26T02:38:23;60.92;45.00;70.91;;
70454;Laerm;57915;47.174;14.680;2023-06-26T02:39:23;58.24;45.90;70.41;;
70454;Laerm;57915;47.174;14.680;2023-06-26T02:40:25;57.63;45.23;69.84;;
70454;Laerm;57915;47.174;14.680;2023-06-26T02:41:25;56.89;44.83;69.40;;
70454;Laerm;57915;47.174;14.680;2023-06-26T02:42:27;60.24;45.05;71.60;;
70454;Laerm;57915;47.174;14.680;2023-06-26T02:43:29;58.86;44.57;72.08;;
70454;Laerm;57915;47.174;14.680;2023-06-26T02:44:30;57.12;44.08;69.21;;
70454;Laerm;57915;47.174;14.680;2023-06-26T02:45:30;58.50;44.56;67.61;;
70454;Laerm;57915;47.174;14.680;2023-06-26T02:46:32;59.90;44.77;70.30;;
70454;Laerm;57915;47.174;14.680;2023-06-26T02:47:33;57.80;44.37;69.60;;
70454;Laerm;57915;47.174;14.680;2023-06-26T02:48:34;59.76;43.66;69.68;;
70454;Laerm;57915;47.174;14.680;2023-06-26T02:49:35;58.16;44.79;68.98;;
70454;Laerm;57915;47.174;14.680;2023-06-26T02:50:36;62.00;45.75;71.04;;
70454;Laerm;57915;47.174;14.680;2023-06-26T02:51:37;59.86;45.52;74.89;;
70454;Laerm;57915;47.174;14.680;2023-06-26T02:52:38;58.97;45.82;69.65;;
70454;Laerm;57915;47.174;14.680;2023-06-26T02:53:39;60.37;47.07;70.40;;
70454;Laerm;57915;47.174;14.680;2023-06-26T02:54:40;58.91;46.04;67.16;;
70454;Laerm;57915;47.174;14.680;2023-06-26T02:55:40;58.20;47.87;68.13;;
70454;Laerm;57915;47.174;14.680;2023-06-26T02:56:42;59.47;46.80;70.47;;
70454;Laerm;57915;47.174;14.680;2023-06-26T02:57:42;57.37;45.56;69.49;;
70454;Laerm;57915;47.174;14.680;2023-06-26T02:58:45;59.94;45.72;69.88;;
70454;Laerm;57915;47.174;14.680;2023-06-26T02:59:46;53.47;45.32;68.78;;
70454;Laerm;57915;47.174;14.680;2023-06-26T03:00:47;62.86;45.18;74.81;;
70454;Laerm;57915;47.174;14.680;2023-06-26T03:01:48;59.47;45.32;71.03;;
70454;Laerm;57915;47.174;14.680;2023-06-26T03:02:49;53.95;44.36;66.14;;
70454;Laerm;57915;47.174;14.680;2023-06-26T03:03:50;49.18;45.19;62.83;;
70454;Laerm;57915;47.174;14.680;2023-06-26T03:04:51;58.86;45.45;71.56;;
70454;Laerm;57915;47.174;14.680;2023-06-26T03:05:52;55.06;45.28;66.29;;
70454;Laerm;57915;47.174;14.680;2023-06-26T03:06:54;56.52;45.90;68.34;;
70454;Laerm;57915;47.174;14.680;2023-06-26T03:07:54;59.72;45.54;70.10;;
70454;Laerm;57915;47.174;14.680;2023-06-26T03:08:56;48.27;45.29;60.22;;
70454;Laerm;57915;47.174;14.680;2023-06-26T03:09:56;49.97;45.21;62.81;;
70454;Laerm;57915;47.174;14.680;2023-06-26T03:10:58;54.85;45.44;68.44;;
70454;Laerm;57915;47.174;14.680;2023-06-26T03:11:59;60.41;45.64;73.41;;
70454;Laerm;57915;47.174;14.680;2023-06-26T03:13:00;56.78;47.36;66.90;;
70454;Laerm;57915;47.174;14.680;2023-06-26T03:14:02;52.65;45.68;63.90;;
70454;Laerm;57915;47.174;14.680;2023-06-26T03:15:04;58.46;45.23;70.42;;
70454;Laerm;57915;47.174;14.680;2023-06-26T03:16:04;56.96;45.22;69.33;;
70454;Laerm;57915;47.174;14.680;2023-06-26T03:17:06;60.47;45.34;71.21;;
70454;Laerm;57915;47.174;14.680;2023-06-26T03:18:07;58.79;46.06;68.58;;
70454;Laerm;57915;47.174;14.680;2023-06-26T03:19:09;55.16;45.40;66.32;;
70454;Laerm;57915;47.174;14.680;2023-06-26T03:20:10;53.79;45.32;64.91;;
70454;Laerm;57915;47.174;14.680;2023-06-26T03:21:12;58.54;45.33;68.76;;
70454;Laerm;57915;47.174;14.680;2023-06-26T03:22:12;63.87;45.39;76.60;;
70454;Laerm;57915;47.174;14.680;2023-06-26T03:23:14;56.18;45.37;68.60;;
70454;Laerm;57915;47.174;14.680;2023-06-26T03:24:14;58.56;46.90;67.46;;
70454;Laerm;57915;47.174;14.680;2023-06-26T03:25:15;59.68;46.55;71.86;;
70454;Laerm;57915;47.174;14.680;2023-06-26T03:26:16;58.83;45.51;69.42;;
70454;Laerm;57915;47.174;14.680;2023-06-26T03:27:17;59.95;45.93;70.49;;
70454;Laerm;57915;47.174;14.680;2023-06-26T03:28:18;56.33;46.03;67.39;;
70454;Laerm;57915;47.174;14.680;2023-06-26T03:29:20;59.72;45.80;70.49;;
70454;Laerm;57915;47.174;14.680;2023-06-26T03:30:21;59.71;46.26;70.35;;
70454;Laerm;57915;47.174;14.680;2023-06-26T03:31:22;60.70;48.06;69.65;;
70454;Laerm;57915;47.174;14.680;2023-06-26T03:32:23;59.28;45.18;70.21;;
70454;Laerm;57915;47.174;14.680;2023-06-26T03:33:24;64.41;45.64;72.17;;
70454;Laerm;57915;47.174;14.680;2023-06-26T03:34:25;60.14;46.35;72.03;;
70454;Laerm;57915;47.174;14.680;2023-06-26T03:35:26;59.95;45.85;68.33;;
70454;Laerm;57915;47.174;14.680;2023-06-26T03:36:26;59.59;46.09;70.10;;
70454;Laerm;57915;47.174;14.680;2023-06-26T03:37:28;61.31;45.31;72.38;;
70454;Laerm;57915;47.174;14.680;2023-06-26T03:38:28;61.55;45.80;68.61;;
70454;Laerm;57915;47.174;14.680;2023-06-26T03:39:30;58.02;45.26;69.75;;
70454;Laerm;57915;47.174;14.680;2023-06-26T03:40:30;61.34;44.87;70.92;;
70454;Laerm;57915;47.174;14.680;2023-06-26T03:41:31;63.26;48.60;72.54;;
70454;Laerm;57915;47.174;14.680;2023-06-26T03:42:32;62.32;44.42;74.18;;
70454;Laerm;57915;47.174;14.680;2023-06-26T03:43:33;59.30;46.05;70.59;;
70454;Laerm;57915;47.174;14.680;2023-06-26T03:44:36;63.30;45.29;75.26;;
70454;Laerm;57915;47.174;14.680;2023-06-26T03:45:37;63.65;45.94;73.54;;
70454;Laerm;57915;47.174;14.680;2023-06-26T03:46:38;59.96;45.89;71.47;;
70454;Laerm;57915;47.174;14.680;2023-06-26T03:47:38;57.21;46.50;68.30;;
70454;Laerm;57915;47.174;14.680;2023-06-26T03:48:40;49.34;46.55;57.16;;
70454;Laerm;57915;47.174;14.680;2023-06-26T03:49:40;49.07;45.75;55.91;;
70454;Laerm;57915;47.174;14.680;2023-06-26T03:50:42;56.45;45.79;69.08;;
70454;Laerm;57915;47.174;14.680;2023-06-26T03:51:42;58.12;46.28;71.26;;
70454;Laerm;57915;47.174;14.680;2023-06-26T03:52:44;58.79;46.03;69.72;;
70454;Laerm;57915;47.174;14.680;2023-06-26T03:53:44;56.30;45.31;68.98;;
70454;Laerm;57915;47.174;14.680;2023-06-26T03:54:45;60.18;44.34;71.22;;
70454;Laerm;57915;47.174;14.680;2023-06-26T03:55:46;47.15;44.39;55.67;;
70454;Laerm;57915;47.174;14.680;2023-06-26T03:56:48;58.34;44.16;71.26;;
70454;Laerm;57915;47.174;14.680;2023-06-26T03:57:48;58.72;44.51;69.85;;
70454;Laerm;57915;47.174;14.680;2023-06-26T03:58:50;58.65;44.81;70.28;;
70454;Laerm;57915;47.174;14.680;2023-06-26T03:59:52;60.09;45.89;71.27;;
70454;Laerm;57915;47.174;14.680;2023-06-26T04:00:53;59.22;44.99;71.09;;
70454;Laerm;57915;47.174;14.680;2023-06-26T04:01:55;57.45;45.38;69.56;;
70454;Laerm;57915;47.174;14.680;2023-06-26T04:02:57;49.47;44.21;61.86;;
70454;Laerm;57915;47.174;14.680;2023-06-26T04:03:57;57.95;44.54;70.91;;
70454;Laerm;57915;47.174;14.680;2023-06-26T04:04:59;58.25;45.30;69.54;;
70454;Laerm;57915;47.174;14.680;2023-06-26T04:06:00;54.87;44.62;65.24;;
70454;Laerm;57915;47.174;14.680;2023-06-26T04:07:01;58.70;44.75;68.12;;
70454;Laerm;57915;47.174;14.680;2023-06-26T04:08:02;60.60;43.98;71.88;;
70454;Laerm;57915;47.174;14.680;2023-06-26T04:09:03;56.90;45.38;69.42;;
70454;Laerm;57915;47.174;14.680;2023-06-26T04:10:05;56.93;44.41;72.94;;
70454;Laerm;57915;47.174;14.680;2023-06-26T04:11:06;60.52;44.09;71.09;;
70454;Laerm;57915;47.174;14.680;2023-06-26T04:12:07;49.13;43.38;62.01;;
70454;Laerm;57915;47.174;14.680;2023-06-26T04:13:08;58.12;44.16;69.86;;
70454;Laerm;57915;47.174;14.680;2023-06-26T04:14:09;53.59;44.17;65.54;;
70454;Laerm;57915;47.174;14.680;2023-06-26T04:15:11;59.03;43.13;71.25;;
70454;Laerm;57915;47.174;14.680;2023-06-26T04:16:12;60.55;44.02;70.22;;
70454;Laerm;57915;47.174;14.680;2023-06-26T04:17:13;58.73;44.88;69.28;;
70454;Laerm;57915;47.174;14.680;2023-06-26T04:18:14;55.14;44.75;66.70;;
70454;Laerm;57915;47.174;14.680;2023-06-26T04:19:15;55.80;43.48;68.97;;
70454;Laerm;57915;47.174;14.680;2023-06-26T04:20:16;60.69;43.96;69.96;;
70454;Laerm;57915;47.174;14.680;2023-06-26T04:21:17;64.25;45.43;73.63;;
70454;Laerm;57915;47.174;14.680;2023-06-26T04:22:18;62.65;46.69;73.05;;
70454;Laerm;57915;47.174;14.680;2023-06-26T04:23:19;61.97;45.63;71.58;;
70454;Laerm;57915;47.174;14.680;2023-06-26T04:24:21;56.03;45.11;69.83;;
70454;Laerm;57915;47.174;14.680;2023-06-26T04:25:22;56.82;42.83;67.78;;
70454;Laerm;57915;47.174;14.680;2023-06-26T04:26:23;52.48;44.27;63.08;;
70454;Laerm;57915;47.174;14.680;2023-06-26T04:27:24;57.59;44.65;70.75;;
70454;Laerm;57915;47.174;14.680;2023-06-26T04:28:24;53.05;43.84;68.20;;
70454;Laerm;57915;47.174;14.680;2023-06-26T04:29:26;61.54;44.41;71.84;;
70454;Laerm;57915;47.174;14.680;2023-06-26T04:30:28;55.40;43.58;67.92;;
70454;Laerm;57915;47.174;14.680;2023-06-26T04:31:30;59.56;44.75;68.03;;
70454;Laerm;57915;47.174;14.680;2023-06-26T04:32:30;53.94;44.94;64.85;;
70454;Laerm;57915;47.174;14.680;2023-06-26T04:33:32;56.50;43.10;70.64;;
70454;Laerm;57915;47.174;14.680;2023-06-26T04:34:32;47.70;43.80;55.65;;
70454;Laerm;57915;47.174;14.680;2023-06-26T04:35:36;56.04;43.66;69.49;;
70454;Laerm;57915;47.174;14.680;2023-06-26T04:36:36;57.01;44.86;67.18;;
70454;Laerm;57915;47.174;14.680;2023-06-26T04:37:39;57.55;43.70;67.70;;
70454;Laerm;57915;47.174;14.680;2023-06-26T04:38:40;58.65;43.42;72.13;;
70454;Laerm;57915;47.174;14.680;2023-06-26T04:39:41;58.26;44.66;67.46;;
70454;Laerm;57915;47.174;14.680;2023-06-26T04:40:42;59.81;46.37;72.00;;
70454;Laerm;57915;47.174;14.680;2023-06-26T04:41:43;59.98;45.45;71.85;;
70454;Laerm;57915;47.174;14.680;2023-06-26T04:42:44;60.13;47.43;68.86;;
70454;Laerm;57915;47.174;14.680;2023-06-26T04:43:45;65.44;46.27;72.70;;
70454;Laerm;57915;47.174;14.680;2023-06-26T04:44:46;55.00;45.60;70.70;;
70454;Laerm;57915;47.174;14.680;2023-06-26T04:45:48;63.28;51.35;71.36;;
70454;Laerm;57915;47.174;14.680;2023-06-26T04:46:49;61.92;44.97;74.50;;
70454;Laerm;57915;47.174;14.680;2023-06-26T04:47:51;62.24;45.14;74.42;;
70454;Laerm;57915;47.174;14.680;2023-06-26T04:48:52;60.60;43.82;72.09;;
70454;Laerm;57915;47.174;14.680;2023-06-26T04:49:53;61.86;43.81;71.56;;
70454;Laerm;57915;47.174;14.680;2023-06-26T04:50:55;63.29;45.87;72.84;;
70454;Laerm;57915;47.174;14.680;2023-06-26T04:51:56;62.91;46.88;71.15;;
70454;Laerm;57915;47.174;14.680;2023-06-26T04:53:00;61.23;43.56;70.84;;
70454;Laerm;57915;47.174;14.680;2023-06-26T04:54:00;62.01;44.83;70.88;;
70454;Laerm;57915;47.174;14.680;2023-06-26T04:55:02;60.93;43.55;69.90;;
70454;Laerm;57915;47.174;14.680;2023-06-26T04:56:03;50.45;43.10;64.75;;
70454;Laerm;57915;47.174;14.680;2023-06-26T04:57:04;59.75;43.69;70.97;;
70454;Laerm;57915;47.174;14.680;2023-06-26T04:58:05;63.93;46.45;72.18;;
70454;Laerm;57915;47.174;14.680;2023-06-26T04:59:07;60.36;45.63;70.04;;
70454;Laerm;57915;47.174;14.680;2023-06-26T05:00:07;57.07;44.73;68.10;;
70454;Laerm;57915;47.174;14.680;2023-06-26T05:01:12;61.14;46.64;70.36;;
70454;Laerm;57915;47.174;14.680;2023-06-26T05:02:13;60.96;45.11;70.41;;
70454;Laerm;57915;47.174;14.680;2023-06-26T05:03:16;62.82;46.36;70.29;;
70454;Laerm;57915;47.174;14.680;2023-06-26T05:04:17;60.70;43.15;70.95;;
70454;Laerm;57915;47.174;14.680;2023-06-26T05:05:18;57.08;43.71;66.33;;
70454;Laerm;57915;47.174;14.680;2023-06-26T05:06:19;60.32;45.18;69.55;;
70454;Laerm;57915;47.174;14.680;2023-06-26T05:07:20;54.48;43.43;64.47;;
70454;Laerm;57915;47.174;14.680;2023-06-26T05:08:22;60.17;43.02;69.48;;
70454;Laerm;57915;47.174;14.680;2023-06-26T05:09:23;57.64;42.93;68.75;;
70454;Laerm;57915;47.174;14.680;2023-06-26T05:10:24;59.93;44.83;68.97;;
70454;Laerm;57915;47.174;14.680;2023-06-26T05:11:25;62.44;43.77;70.58;;
70454;Laerm;57915;47.174;14.680;2023-06-26T05:12:26;60.94;42.28;73.52;;
70454;Laerm;57915;47.174;14.680;2023-06-26T05:13:27;60.59;46.94;69.31;;
70454;Laerm;57915;47.174;14.680;2023-06-26T05:14:28;63.90;51.17;70.17;;
70454;Laerm;57915;47.174;14.680;2023-06-26T05:15:29;62.50;47.66;70.74;;
70454;Laerm;57915;47.174;14.680;2023-06-26T05:16:31;65.02;50.01;74.10;;
70454;Laerm;57915;47.174;14.680;2023-06-26T05:17:32;63.02;46.41;71.04;;
70454;Laerm;57915;47.174;14.680;2023-06-26T05:18:33;61.15;44.40;69.09;;
70454;Laerm;57915;47.174;14.680;2023-06-26T05:19:34;63.83;44.57;72.52;;
70454;Laerm;57915;47.174;14.680;2023-06-26T05:20:36;58.63;48.11;68.32;;
70454;Laerm;57915;47.174;14.680;2023-06-26T05:21:37;61.31;45.98;70.03;;
70454;Laerm;57915;47.174;14.680;2023-06-26T05:22:39;62.29;48.96;71.83;;
70454;Laerm;57915;47.174;14.680;2023-06-26T05:23:39;62.36;48.46;71.20;;
70454;Laerm;57915;47.174;14.680;2023-06-26T05:24:45;61.02;46.07;68.78;;
70454;Laerm;57915;47.174;14.680;2023-06-26T05:25:46;64.66;55.36;70.51;;
70454;Laerm;57915;47.174;14.680;2023-06-26T05:26:48;63.20;50.22;69.77;;
70454;Laerm;57915;47.174;14.680;2023-06-26T05:27:49;61.96;47.02;72.06;;
70454;Laerm;57915;47.174;14.680;2023-06-26T05:28:51;64.19;50.79;70.80;;
70454;Laerm;57915;47.174;14.680;2023-06-26T05:29:52;63.78;49.95;72.97;;
70454;Laerm;57915;47.174;14.680;2023-06-26T05:30:53;62.69;43.63;70.66;;
70454;Laerm;57915;47.174;14.680;2023-06-26T05:31:56;64.72;44.56;74.50;;
70454;Laerm;57915;47.174;14.680;2023-06-26T05:32:57;61.71;49.65;71.07;;
70454;Laerm;57915;47.174;14.680;2023-06-26T05:34:00;64.87;56.65;71.63;;
70454;Laerm;57915;47.174;14.680;2023-06-26T05:35:03;63.23;44.07;71.66;;
70454;Laerm;57915;47.174;14.680;2023-06-26T05:36:05;63.33;50.46;70.87;;
70454;Laerm;57915;47.174;14.680;2023-06-26T05:37:07;64.62;49.47;71.14;;
70454;Laerm;57915;47.174;14.680;2023-06-26T05:38:09;62.82;45.88;71.59;;
70454;Laerm;57915;47.174;14.680;2023-06-26T05:39:10;63.18;50.64;71.21;;